createdAt,value
2024-02-24T00:01:08.669Z,101421.07
2024-02-24T00:04:09.640Z,101424.94
2024-02-24T00:07:10.626Z,101414.15
2024-02-24T00:10:11.662Z,101408.34
2024-02-24T00:13:12.636Z,101405.61
2024-02-24T00:16:13.670Z,101403.73
2024-02-24T00:19:14.753Z,101394.44
2024-02-24T00:22:15.675Z,101390.47
2024-02-24T00:25:16.659Z,101392.66
2024-02-24T00:28:17.672Z,101388.17
2024-02-24T00:31:18.708Z,101385.00
2024-02-24T00:34:19.712Z,101382.52
2024-02-24T00:37:20.700Z,101384.64
2024-02-24T00:40:22.681Z,101388.75
2024-02-24T00:43:23.711Z,101396.91
2024-02-24T00:46:24.686Z,101408.70
2024-02-24T00:49:25.738Z,101414.92
2024-02-24T00:52:26.727Z,101414.64
2024-02-24T00:55:27.714Z,101410.57
2024-02-24T00:58:28.731Z,101404.15
2024-02-24T01:01:29.724Z,101410.91
2024-02-24T01:04:30.804Z,101411.17
2024-02-24T01:07:31.823Z,101411.41
2024-02-24T01:10:36.749Z,101409.88
2024-02-24T01:13:37.853Z,101416.37
2024-02-24T01:16:38.770Z,101423.68
2024-02-24T01:19:40.217Z,101416.73
2024-02-24T01:22:40.819Z,101414.20
2024-02-24T01:25:41.779Z,101414.22
2024-02-24T01:28:44.826Z,101413.13
2024-02-24T01:31:45.777Z,101419.48
2024-02-24T01:34:46.819Z,101426.48
2024-02-24T01:37:49.797Z,101428.62
2024-02-24T01:40:50.822Z,101428.27
2024-02-24T01:43:51.823Z,101422.48
2024-02-24T01:46:52.849Z,101420.34
2024-02-24T01:49:54.813Z,101423.41
2024-02-24T01:52:59.834Z,101418.01
2024-02-24T01:56:02.855Z,101420.96
2024-02-24T01:59:03.871Z,101420.17
2024-02-24T02:02:05.870Z,101429.32
2024-02-24T02:05:06.958Z,101429.14
2024-02-24T02:08:07.919Z,101427.27
2024-02-24T02:11:09.922Z,101425.91
2024-02-24T02:14:10.898Z,101432.33
2024-02-24T02:17:11.897Z,101433.23
2024-02-24T02:20:16.962Z,101436.11
2024-02-24T02:23:17.950Z,101436.05
2024-02-24T02:26:20.919Z,101434.67
2024-02-24T02:29:21.979Z,101430.10
2024-02-24T02:32:23.010Z,101436.98
2024-02-24T02:35:23.940Z,101440.75
2024-02-24T02:38:24.941Z,101450.08
2024-02-24T02:41:25.978Z,101453.25
2024-02-24T02:44:27.967Z,101456.88
2024-02-24T02:47:29.155Z,101462.11
2024-02-24T02:50:29.992Z,101469.65
2024-02-24T02:53:30.995Z,101474.73
2024-02-24T02:56:31.972Z,101479.75
2024-02-24T02:59:32.999Z,101486.38
2024-02-24T03:02:34.052Z,101493.23
2024-02-24T03:05:35.090Z,101490.96
2024-02-24T03:08:36.078Z,101491.08
2024-02-24T03:11:37.092Z,101489.81
2024-02-24T03:14:38.108Z,101486.00
2024-02-24T03:17:39.090Z,101484.83
2024-02-24T03:20:40.035Z,101484.72
2024-02-24T03:23:41.063Z,101484.92
2024-02-24T03:26:43.154Z,101476.87
2024-02-24T03:29:44.077Z,101480.15
2024-02-24T03:32:45.107Z,101485.27
2024-02-24T03:35:46.094Z,101484.41
2024-02-24T03:38:47.175Z,101485.79
2024-02-24T03:41:48.109Z,101482.67
2024-02-24T03:44:49.192Z,101481.98
2024-02-24T03:47:50.234Z,101485.83
2024-02-24T03:50:51.102Z,101484.13
2024-02-24T03:53:52.119Z,101478.66
2024-02-24T03:56:53.195Z,101487.54
2024-02-24T03:59:54.162Z,101486.24
2024-02-24T04:02:57.094Z,101490.20
2024-02-24T04:05:58.281Z,101493.58
2024-02-24T04:08:59.141Z,101492.39
2024-02-24T04:12:01.209Z,101492.19
2024-02-24T04:15:02.116Z,101497.00
2024-02-24T04:18:04.248Z,101497.83
2024-02-24T04:21:05.109Z,101495.02
2024-02-24T04:24:06.150Z,101495.75
2024-02-24T04:27:07.158Z,101499.82
2024-02-24T04:30:08.146Z,101500.34
2024-02-24T04:33:10.244Z,101504.27
2024-02-24T04:36:12.179Z,101501.34
2024-02-24T04:39:13.206Z,101507.81
2024-02-24T04:42:14.162Z,101511.66
2024-02-24T04:45:15.216Z,101511.75
2024-02-24T04:48:16.283Z,101515.58
2024-02-24T04:51:17.203Z,101516.92
2024-02-24T04:54:18.222Z,101520.00
2024-02-24T04:57:19.225Z,101529.38
2024-02-24T05:00:22.199Z,101531.23
2024-02-24T05:03:23.216Z,101532.60
2024-02-24T05:06:24.236Z,101540.33
2024-02-24T05:09:25.386Z,101545.97
2024-02-24T05:12:26.253Z,101546.66
2024-02-24T05:15:27.231Z,101552.11
2024-02-24T05:18:28.417Z,101554.92
2024-02-24T05:21:36.279Z,101554.48
2024-02-24T05:24:37.258Z,101551.20
2024-02-24T05:27:38.458Z,101551.61
2024-02-24T05:30:39.289Z,101550.95
2024-02-24T05:33:40.379Z,101546.84
2024-02-24T05:36:43.286Z,101544.52
2024-02-24T05:39:44.273Z,101543.53
2024-02-24T05:42:45.300Z,101546.10
2024-02-24T05:45:46.302Z,101544.99
2024-02-24T05:48:51.417Z,101548.92
2024-02-24T05:51:45.488Z,101541.95
2024-02-24T05:54:46.346Z,101542.52
2024-02-24T05:57:47.320Z,101543.13
2024-02-24T06:00:48.368Z,101537.52
2024-02-24T06:03:49.359Z,101542.77
2024-02-24T06:06:51.400Z,101542.45
2024-02-24T06:09:52.372Z,101542.10
2024-02-24T06:12:53.338Z,101543.61
2024-02-24T06:15:54.374Z,101547.48
2024-02-24T06:18:55.412Z,101544.56
2024-02-24T06:21:56.522Z,101546.45
2024-02-24T06:24:57.419Z,101546.41
2024-02-24T06:27:58.390Z,101541.90
2024-02-24T06:30:59.391Z,101544.73
2024-02-24T06:34:00.974Z,101543.72
2024-02-24T06:37:02.401Z,101545.25
2024-02-24T06:40:03.468Z,101547.77
2024-02-24T06:43:04.414Z,101549.35
2024-02-24T06:46:06.417Z,101551.27
2024-02-24T06:49:07.817Z,101544.52
2024-02-24T06:52:09.421Z,101548.06
2024-02-24T06:55:10.450Z,101544.29
2024-02-24T06:58:11.452Z,101542.92
2024-02-24T07:01:12.497Z,101549.09
2024-02-24T07:04:13.455Z,101551.23
2024-02-24T07:07:15.512Z,101550.54
2024-02-24T07:10:16.577Z,101547.48
2024-02-24T07:13:17.490Z,101547.59
2024-02-24T07:16:18.491Z,101540.95
2024-02-24T07:19:19.608Z,101541.60
2024-02-24T07:22:22.637Z,101543.66
2024-02-24T07:25:23.522Z,101538.36
2024-02-24T07:28:24.511Z,101535.38
2024-02-24T07:31:25.486Z,101539.67
2024-02-24T07:34:26.595Z,101542.16
2024-02-24T07:37:27.537Z,101534.20
2024-02-24T07:40:28.551Z,101527.55
2024-02-24T07:43:29.543Z,101528.04
2024-02-24T07:46:37.559Z,101519.89
2024-02-24T07:49:38.559Z,101520.23
2024-02-24T07:52:39.554Z,101519.13
2024-02-24T07:55:33.654Z,101524.55
2024-02-24T07:58:34.608Z,101524.41
2024-02-24T08:01:35.574Z,101523.23
2024-02-24T08:04:36.587Z,101522.34
2024-02-24T08:07:37.591Z,101516.61
2024-02-24T08:10:38.570Z,101521.61
2024-02-24T08:13:39.638Z,101524.20
2024-02-24T08:16:40.572Z,101528.54
2024-02-24T08:19:41.705Z,101538.51
2024-02-24T08:22:42.608Z,101539.81
2024-02-24T08:25:43.624Z,101535.27
2024-02-24T08:28:44.638Z,101541.02
2024-02-24T08:31:45.676Z,101541.71
2024-02-24T08:34:47.722Z,101540.55
2024-02-24T08:37:48.666Z,101545.02
2024-02-24T08:40:49.677Z,101542.05
2024-02-24T08:43:50.708Z,101538.48
2024-02-24T08:46:51.666Z,101532.16
2024-02-24T08:49:52.749Z,101526.89
2024-02-24T08:52:53.697Z,101530.93
2024-02-24T08:55:54.671Z,101526.51
2024-02-24T08:58:55.737Z,101527.02
2024-02-24T09:01:56.691Z,101523.69
2024-02-24T09:04:57.734Z,101524.27
2024-02-24T09:07:58.728Z,101522.82
2024-02-24T09:11:02.816Z,101530.02
2024-02-24T09:14:03.738Z,101528.20
2024-02-24T09:17:08.764Z,101516.91
2024-02-24T09:20:11.762Z,101513.55
2024-02-24T09:23:12.809Z,101513.92
2024-02-24T09:26:13.825Z,101516.65
2024-02-24T09:29:14.777Z,101522.13
2024-02-24T09:32:15.804Z,101528.17
2024-02-24T09:35:16.806Z,101522.27
2024-02-24T09:38:18.040Z,101521.10
2024-02-24T09:41:18.816Z,101513.20
2024-02-24T09:44:19.860Z,101512.36
2024-02-24T09:47:20.793Z,101513.28
2024-02-24T09:50:21.879Z,101511.48
2024-02-24T09:53:22.853Z,101515.05
2024-02-24T09:56:26.848Z,101517.84
2024-02-24T09:59:27.875Z,101519.52
2024-02-24T10:02:29.840Z,101520.59
2024-02-24T10:05:31.948Z,101522.80
2024-02-24T10:08:32.896Z,101519.88
2024-02-24T10:11:33.921Z,101513.89
2024-02-24T10:14:35.921Z,101507.34
2024-02-24T10:17:36.925Z,101507.48
2024-02-24T10:20:37.879Z,101510.41
2024-02-24T10:23:38.873Z,101506.52
2024-02-24T10:26:39.901Z,101508.56
2024-02-24T10:29:44.936Z,101502.19
2024-02-24T10:32:49.013Z,101506.24
2024-02-24T10:35:52.105Z,101507.14
2024-02-24T10:38:57.028Z,101507.73
2024-02-24T10:42:01.965Z,101513.19
2024-02-24T10:45:05.941Z,101508.18
2024-02-24T10:48:07.198Z,101510.80
2024-02-24T10:51:08.968Z,101508.59
2024-02-24T10:54:16.007Z,101508.47
2024-02-24T10:57:17.929Z,101510.34
2024-02-24T11:00:43.972Z,101510.69
2024-02-24T11:03:45.971Z,101512.98
2024-02-24T11:07:08.171Z,101513.27
2024-02-24T11:10:08.961Z,101514.29
2024-02-24T11:13:09.976Z,101509.30
2024-02-24T11:16:11.971Z,101509.86
2024-02-24T11:19:17.994Z,101509.36
2024-02-24T11:22:20.004Z,101505.63
2024-02-24T11:25:21.962Z,101509.35
2024-02-24T11:28:24.010Z,101505.47
2024-02-24T11:31:32.017Z,101499.27
2024-02-24T11:34:36.102Z,101505.14
2024-02-24T11:37:37.003Z,101501.35
2024-02-24T11:40:38.021Z,101502.42
2024-02-24T11:43:39.035Z,101504.38
2024-02-24T11:46:41.049Z,101511.16
2024-02-24T11:49:42.108Z,101511.36
2024-02-24T11:52:43.043Z,101512.12
2024-02-24T11:55:44.077Z,101512.80
2024-02-24T11:58:45.033Z,101517.54
2024-02-24T12:01:46.103Z,101513.46
2024-02-24T12:04:47.110Z,101517.73
2024-02-24T12:07:48.098Z,101515.67
2024-02-24T12:10:50.134Z,101518.36
2024-02-24T12:13:51.093Z,101518.13
2024-02-24T12:16:52.109Z,101515.69
2024-02-24T12:19:53.116Z,101510.16
2024-02-24T12:22:54.095Z,101507.17
2024-02-24T12:25:57.109Z,101506.36
2024-02-24T12:29:00.136Z,101501.85
2024-02-24T12:32:01.171Z,101502.76
2024-02-24T12:35:02.174Z,101497.81
2024-02-24T12:38:06.176Z,101496.54
2024-02-24T12:41:07.154Z,101495.81
2024-02-24T12:44:08.150Z,101498.13
2024-02-24T12:47:09.180Z,101498.16
2024-02-24T12:50:10.253Z,101491.88
2024-02-24T12:53:11.174Z,101491.29
2024-02-24T12:56:12.169Z,101495.92
2024-02-24T12:59:10.213Z,101503.98
2024-02-24T13:01:58.172Z,101505.39
2024-02-24T13:04:59.216Z,101505.09
2024-02-24T13:08:00.263Z,101506.02
2024-02-24T13:11:01.410Z,101504.74
2024-02-24T13:14:02.236Z,101503.87
2024-02-24T13:17:03.253Z,101503.63
2024-02-24T13:20:04.242Z,101500.67
2024-02-24T13:23:05.246Z,101498.98
2024-02-24T13:26:06.257Z,101498.06
2024-02-24T13:29:07.255Z,101493.39
2024-02-24T13:32:08.254Z,101487.58
2024-02-24T13:35:10.278Z,101482.77
2024-02-24T13:38:11.264Z,101480.48
2024-02-24T13:41:12.258Z,101485.44
2024-02-24T13:44:15.314Z,101490.62
2024-02-24T13:47:09.289Z,101490.52
2024-02-24T13:50:10.297Z,101493.67
2024-02-24T13:53:12.773Z,101490.19
2024-02-24T13:56:14.356Z,101490.98
2024-02-24T13:59:15.353Z,101490.48
2024-02-24T14:02:16.359Z,101497.42
2024-02-24T14:05:17.946Z,101507.52
2024-02-24T14:08:19.359Z,101506.10
2024-02-24T14:11:20.435Z,101507.48
2024-02-24T14:14:21.378Z,101507.52
2024-02-24T14:17:22.408Z,101513.98
2024-02-24T14:20:28.233Z,101510.54
2024-02-24T14:23:30.406Z,101516.69
2024-02-24T14:26:31.403Z,101522.79
2024-02-24T14:29:33.427Z,101529.79
2024-02-24T14:32:27.483Z,101534.71
2024-02-24T14:35:34.427Z,101533.81
2024-02-24T14:38:36.441Z,101534.83
2024-02-24T14:41:37.537Z,101538.30
2024-02-24T14:44:38.495Z,101537.49
2024-02-24T14:47:39.490Z,101541.33
2024-02-24T14:50:40.470Z,101536.45
2024-02-24T14:53:41.434Z,101537.16
2024-02-24T14:56:42.465Z,101541.87
2024-02-24T14:59:43.486Z,101549.38
2024-02-24T15:02:52.758Z,101558.80
2024-02-24T15:06:05.541Z,101563.50
2024-02-24T15:09:06.625Z,101561.67
2024-02-24T15:12:14.558Z,101562.95
2024-02-24T15:15:15.487Z,101569.48
2024-02-24T15:18:17.080Z,101568.71
2024-02-24T15:21:19.480Z,101564.03
2024-02-24T15:24:20.523Z,101566.11
2024-02-24T15:27:21.502Z,101573.07
2024-02-24T15:30:22.514Z,101576.39
2024-02-24T15:33:23.741Z,101584.33
2024-02-24T15:36:24.513Z,101588.05
2024-02-24T15:39:25.525Z,101590.73
2024-02-24T15:42:27.521Z,101592.15
2024-02-24T15:45:30.548Z,101599.00
2024-02-24T15:48:31.702Z,101603.10
2024-02-24T15:51:32.571Z,101602.32
2024-02-24T15:54:33.578Z,101607.45
2024-02-24T15:57:34.570Z,101604.02
2024-02-24T16:00:35.595Z,101612.79
2024-02-24T16:03:36.631Z,101615.85
2024-02-24T16:06:37.628Z,101622.98
2024-02-24T16:09:40.604Z,101627.99
2024-02-24T16:12:41.571Z,101639.55
2024-02-24T16:15:36.601Z,101644.99
2024-02-24T16:18:21.886Z,101649.69
2024-02-24T16:21:08.668Z,101643.59
2024-02-24T16:23:56.638Z,101644.02
2024-02-24T16:27:02.720Z,101645.96
2024-02-24T16:30:03.703Z,101652.88
2024-02-24T16:33:05.881Z,101660.12
2024-02-24T16:36:06.692Z,101663.77
2024-02-24T16:39:09.912Z,101667.41
2024-02-24T16:42:10.688Z,101670.40
2024-02-24T16:45:13.681Z,101674.75
2024-02-24T16:48:14.723Z,101678.06
2024-02-24T16:51:15.655Z,101674.89
2024-02-24T16:54:16.665Z,101673.43
2024-02-24T16:57:17.790Z,101671.45
2024-02-24T17:00:21.742Z,101672.73
2024-02-24T17:03:22.687Z,101679.67
2024-02-24T17:06:23.826Z,101680.99
2024-02-24T17:09:24.906Z,101687.76
2024-02-24T17:12:27.020Z,101686.58
2024-02-24T17:15:27.779Z,101687.71
2024-02-24T17:18:35.995Z,101686.71
2024-02-24T17:21:41.092Z,101688.77
2024-02-24T17:24:41.760Z,101693.14
2024-02-24T17:27:44.231Z,101697.75
2024-02-24T17:30:46.761Z,101704.55
2024-02-24T17:33:51.847Z,101707.92
2024-02-24T17:36:57.763Z,101709.13
2024-02-24T17:39:58.767Z,101711.85
2024-02-24T17:42:59.754Z,101710.95
2024-02-24T17:46:01.784Z,101714.27
2024-02-24T17:49:03.137Z,101711.60
2024-02-24T17:52:05.827Z,101717.84
2024-02-24T17:55:06.786Z,101723.58
2024-02-24T17:58:09.785Z,101723.70
2024-02-24T18:01:10.866Z,101721.83
2024-02-24T18:04:11.877Z,101723.55
2024-02-24T18:07:16.235Z,101726.95
2024-02-24T18:10:16.831Z,101725.20
2024-02-24T18:13:17.846Z,101734.48
2024-02-24T18:16:18.860Z,101731.70
2024-02-24T18:19:15.348Z,101729.45
2024-02-24T18:22:03.877Z,101727.80
2024-02-24T18:25:04.848Z,101723.14
2024-02-24T18:28:06.858Z,101728.55
2024-02-24T18:31:07.911Z,101722.41
2024-02-24T18:34:09.239Z,101718.48
2024-02-24T18:37:02.890Z,101717.81
2024-02-24T18:39:51.001Z,101714.33
2024-02-24T18:42:53.006Z,101719.45
2024-02-24T18:45:53.894Z,101720.84
2024-02-24T18:48:55.129Z,101724.21
2024-02-24T18:51:58.030Z,101721.17
2024-02-24T18:54:59.906Z,101725.91
2024-02-24T18:58:02.925Z,101723.10
2024-02-24T19:01:05.979Z,101724.33
2024-02-24T19:04:08.109Z,101722.36
2024-02-24T19:07:08.924Z,101725.35
2024-02-24T19:10:10.365Z,101726.89
2024-02-24T19:13:11.072Z,101726.14
2024-02-24T19:16:12.117Z,101729.42
2024-02-24T19:19:14.197Z,101739.00
2024-02-24T19:22:14.994Z,101743.60
2024-02-24T19:25:20.159Z,101752.25
2024-02-24T19:28:21.982Z,101759.16
2024-02-24T19:31:22.960Z,101760.82
2024-02-24T19:34:27.088Z,101763.29
2024-02-24T19:37:28.051Z,101763.81
2024-02-24T19:40:30.054Z,101764.69
2024-02-24T19:43:31.012Z,101754.29
2024-02-24T19:46:31.997Z,101751.17
2024-02-24T19:49:33.237Z,101753.90
2024-02-24T19:52:34.032Z,101755.90
2024-02-24T19:55:36.565Z,101753.02
2024-02-24T19:58:42.348Z,101752.90
2024-02-24T20:01:49.067Z,101747.00
2024-02-24T20:04:50.038Z,101747.70
2024-02-24T20:07:53.845Z,101743.24
2024-02-24T20:10:56.107Z,101746.13
2024-02-24T20:13:57.087Z,101744.34
2024-02-24T20:16:59.073Z,101748.08
2024-02-24T20:20:00.223Z,101749.50
2024-02-24T20:23:01.198Z,101754.88
2024-02-24T20:26:02.099Z,101752.11
2024-02-24T20:29:03.117Z,101757.71
2024-02-24T20:32:04.104Z,101760.84
2024-02-24T20:35:05.140Z,101757.71
2024-02-24T20:38:06.113Z,101761.16
2024-02-24T20:41:07.215Z,101764.36
2024-02-24T20:44:09.128Z,101758.71
2024-02-24T20:47:10.154Z,101756.85
2024-02-24T20:50:11.152Z,101753.11
2024-02-24T20:53:12.169Z,101751.38
2024-02-24T20:56:13.186Z,101752.05
2024-02-24T20:59:14.123Z,101753.91
2024-02-24T21:02:17.190Z,101755.67
2024-02-24T21:05:18.236Z,101752.31
2024-02-24T21:08:23.218Z,101751.58
2024-02-24T21:11:24.201Z,101756.85
2024-02-24T21:14:25.222Z,101756.98
2024-02-24T21:17:26.252Z,101759.42
2024-02-24T21:20:27.260Z,101765.19
2024-02-24T21:23:28.285Z,101765.73
2024-02-24T21:26:30.354Z,101772.96
2024-02-24T21:29:32.262Z,101776.44
2024-02-24T21:32:34.344Z,101782.67
2024-02-24T21:35:38.346Z,101787.84
2024-02-24T21:38:41.272Z,101797.69
2024-02-24T21:41:45.243Z,101804.14
2024-02-24T21:44:46.303Z,101803.73
2024-02-24T21:47:47.510Z,101801.95
2024-02-24T21:50:48.320Z,101791.78
2024-02-24T21:53:49.712Z,101788.44
2024-02-24T21:56:58.417Z,101791.66
2024-02-24T21:59:59.378Z,101793.30
2024-02-24T22:03:01.434Z,101796.23
2024-02-24T22:06:02.495Z,101796.23
2024-02-24T22:08:57.612Z,101797.69
2024-02-24T22:11:58.314Z,101798.29
2024-02-24T22:14:59.521Z,101803.35
2024-02-24T22:18:00.529Z,101807.73
2024-02-24T22:21:02.465Z,101814.21
2024-02-24T22:24:03.378Z,101812.44
2024-02-24T22:27:04.443Z,101808.33
2024-02-24T22:30:13.185Z,101805.57
2024-02-24T22:33:18.576Z,101809.66
2024-02-24T22:36:21.873Z,101807.06
2024-02-24T22:39:24.361Z,101809.34
2024-02-24T22:42:25.345Z,101813.99
2024-02-24T22:45:27.426Z,101816.71
2024-02-24T22:48:28.450Z,101815.96
2024-02-24T22:51:30.389Z,101813.66
2024-02-24T22:54:31.385Z,101809.82
2024-02-24T22:57:32.393Z,101812.16
2024-02-24T23:00:33.474Z,101820.11
2024-02-24T23:03:35.483Z,101816.65
2024-02-24T23:06:36.481Z,101813.33
2024-02-24T23:09:37.558Z,101806.70
2024-02-24T23:12:38.509Z,101800.78
2024-02-24T23:15:39.533Z,101795.75
2024-02-24T23:18:40.588Z,101792.17
2024-02-24T23:21:43.496Z,101792.66
2024-02-24T23:24:44.497Z,101785.02
2024-02-24T23:27:45.463Z,101785.75
2024-02-24T23:30:46.512Z,101782.21
2024-02-24T23:33:47.717Z,101781.17
2024-02-24T23:36:48.551Z,101776.84
2024-02-24T23:39:49.462Z,101774.79
2024-02-24T23:42:51.513Z,101776.97
2024-02-24T23:45:53.501Z,101773.59
2024-02-24T23:48:58.820Z,101775.47
2024-02-24T23:52:00.516Z,101774.69
2024-02-24T23:55:01.567Z,101770.54
2024-02-24T23:58:02.513Z,101774.92
